Upper Mill, Pennsylvania
Current Conditions -  °F | °C
As of 9:18 AM on Wednesday 26 Nov 2014 (Local Time) from KCXY Reporting Station
Light Snow Light Snow  
Wind Chill: 34°   Ceiling: 800
Heat Index: 34°   Visibility: 1.7mi
Dew Point: 32°   Wind: 3mph
Humidity: 92%   Direction: 90°E
Pressure: 30.11"   Gusts: NA
Location:  40.0983°N, 77.2041°W
Report Text: KCXY 261418Z 09003KT 1 3/4SM -SN BR OVC008 01/00 A3011 RMK AO2 RAE1358SNB1358 CIG 004V010 P0003 T00110000
Loading
Personal Weather Stations






























Interactive Weather Map New forecast layout! Learn more

10-Day Weather Forecast

Advertisements
Track Severe Weather on mobile